Roanoke — WDD9656 — position and weather

sailwx.info

Track history (hours):
 
Tides and Currents Weather Stations Pressure Air Temp Water Temp Dewpoint Dewpoint Depression Visibility Wind Speed Wind Dir Waves Ship Positions

Roanoke

More information available from US FCC via Universal Licensing System and Coast Guard Vessel Documentation Center.

Last reported at 2014-Aug-22 09:04 UTC. Time now 2014-Aug-22 09:56 UTC.
Position N 39°14' W 076°21'.

Length 32 m; draft 13 m.

Type: Towing. MMSI: 367314510.

Date/timePositionNaut miles runAvg speedWind from/ knotsBaromVisibWave heightAir tempDewpointWater temp
2014-Aug-22 09:04N 39°14' W 076°21'4 8.4
2014-Aug-22 08:33N 39°11' W 076°25'7 7.4
2014-Aug-22 07:33N 39°15' W 076°33'1 0.6
2014-Aug-22 06:05N 39°15' W 076°34'0 0.0
2014-Aug-22 05:32N 39°15' W 076°34'0 0.0
2014-Aug-22 04:21N 39°15' W 076°34'0 0.0
2014-Aug-22 03:31N 39°15' W 076°34'0 0.0
2014-Aug-22 02:29N 39°15' W 076°34'0 0.0
2014-Aug-22 01:32N 39°15' W 076°34'0 0.0
2014-Aug-22 00:33N 39°15' W 076°34'0 0.0
2014-Aug-21 23:33N 39°15' W 076°34'0 0.0
2014-Aug-21 22:31N 39°15' W 076°34'0 0.0
2014-Aug-21 21:32N 39°15' W 076°34'0 0.4
2014-Aug-21 20:29N 39°15' W 076°34'2 2.3
2014-Aug-21 19:33N 39°13' W 076°32'7 7.1
2014-Aug-21 18:33N 39°12' W 076°23'44 8.8
2014-Aug-21 13:33N 39°33' W 075°33'10 9.3
2014-Aug-21 12:30N 39°24' W 075°29'1010.3
2014-Aug-21 11:33N 39°16' W 075°21'6 2.9
2014-Aug-21 09:31N 39°11' W 075°24'0 0.0
2014-Aug-21 07:21N 39°11' W 075°24'0 0.0
2014-Aug-21 06:30N 39°11' W 075°24'0 0.0
2014-Aug-21 05:31N 39°11' W 075°24'0 0.0
2014-Aug-21 03:32N 39°11' W 075°24'0 0.0
2014-Aug-21 02:30N 39°11' W 075°24'0 0.0
2014-Aug-21 01:25N 39°11' W 075°24'38 3.1
2014-Aug-20 13:17N 39°19' W 076°12'6 6.5
2014-Aug-20 12:21N 39°15' W 076°17'5 6.6
2014-Aug-20 11:33N 39°12' W 076°23'6 6.2
2014-Aug-20 10:33N 39°12' W 076°31'3 1.0
2014-Aug-20 07:06N 39°15' W 076°34'0 0.4
2014-Aug-20 06:31N 39°15' W 076°34'0 0.4
2014-Aug-20 05:32N 39°15' W 076°34'0 0.0
2014-Aug-20 04:32N 39°15' W 076°34'0 0.0
2014-Aug-20 03:24N 39°15' W 076°34'0 0.0
2014-Aug-20 02:30N 39°15' W 076°34'0 0.0
2014-Aug-20 01:31N 39°15' W 076°34'0 0.0
2014-Aug-20 00:32N 39°15' W 076°34'0 0.3
2014-Aug-19 23:33N 39°15' W 076°34'0 0.2
2014-Aug-19 22:29N 39°15' W 076°34'0 0.3
2014-Aug-19 21:31N 39°15' W 076°34'1 1.0
2014-Aug-19 20:31N 39°15' W 076°33'0 0.0
2014-Aug-19 19:32N 39°15' W 076°33'2 2.1
2014-Aug-19 18:33N 39°14' W 076°32'7 7.3
2014-Aug-19 17:33N 39°12' W 076°23'42 6.9
2014-Aug-19 11:22N 39°24' W 075°30'40 1.4
2014-Aug-18 06:17N 39°14' W 076°20'5 7.5
2014-Aug-18 05:33N 39°11' W 076°26'7 6.7
2014-Aug-18 04:33N 39°14' W 076°33'1 0.9
2014-Aug-18 03:32N 39°15' W 076°34'0 0.0
2014-Aug-18 02:32N 39°15' W 076°34'0 0.0
2014-Aug-18 01:27N 39°15' W 076°34'0 0.0
2014-Aug-18 00:30N 39°15' W 076°34'1 0.2
2014-Aug-17 18:32N 39°15' W 076°33'0 0.0
2014-Aug-17 17:33N 39°15' W 076°33'0 0.0
2014-Aug-17 16:33N 39°15' W 076°33'5 4.3
2014-Aug-17 15:30N 39°12' W 076°30'45 8.8
2014-Aug-17 10:23N 39°33' W 075°39'6 6.3
2014-Aug-17 09:21N 39°28' W 075°34'810.0
2014-Aug-17 08:33N 39°22' W 075°27'34 1.1
2014-Aug-16 02:04N 39°20' W 076°11'10 6.8
2014-Aug-16 00:33N 39°13' W 076°21'6 5.8
2014-Aug-15 23:34N 39°11' W 076°28'6 6.1
2014-Aug-15 22:33N 39°15' W 076°34'0 0.2
2014-Aug-15 21:34N 39°15' W 076°34'0 0.0
2014-Aug-15 20:31N 39°15' W 076°34'0 0.0
2014-Aug-15 19:32N 39°15' W 076°34'0 0.3
2014-Aug-15 18:29N 39°15' W 076°34'0 0.0
2014-Aug-15 17:33N 39°15' W 076°34'0 0.1
2014-Aug-15 16:31N 39°15' W 076°34'0 0.0
2014-Aug-15 15:29N 39°15' W 076°34'0 0.3
2014-Aug-15 14:29N 39°15' W 076°34'0 0.0
2014-Aug-15 13:33N 39°15' W 076°34'0 0.0
2014-Aug-15 12:30N 39°15' W 076°34'1 0.9
2014-Aug-15 11:33N 39°15' W 076°33'6 6.3
2014-Aug-15 10:33N 39°11' W 076°27'14 6.8
2014-Aug-15 08:33N 38°57' W 076°24'39 2.4
2014-Aug-14 16:19N 38°39' W 077°08'7 7.6
2014-Aug-14 15:27N 38°44' W 077°02'7 7.6
2014-Aug-14 14:31N 38°51' W 077°01'1 1.2
2014-Aug-14 13:33N 38°52' W 077°00'0 0.0
2014-Aug-14 12:31N 38°52' W 077°00'0 0.0
2014-Aug-14 11:32N 38°52' W 077°00'0 0.0
2014-Aug-14 10:32N 38°52' W 077°00'0 0.0
2014-Aug-14 09:33N 38°52' W 077°00'0 0.0
2014-Aug-14 08:34N 38°52' W 077°00'0 0.0
2014-Aug-14 07:31N 38°52' W 077°00'0 0.0
2014-Aug-14 06:29N 38°52' W 077°00'0 0.0
2014-Aug-14 05:30N 38°52' W 077°00'0 0.0
2014-Aug-14 04:33N 38°52' W 077°00'0 0.0
2014-Aug-14 03:31N 38°52' W 077°00'0 0.0
2014-Aug-14 02:32N 38°52' W 077°00'0 0.0
2014-Aug-14 01:32N 38°52' W 077°00'0 0.0
2014-Aug-14 00:28N 38°52' W 077°00'0 0.0
2014-Aug-13 23:28N 38°52' W 077°00'0 0.0
2014-Aug-13 22:31N 38°52' W 077°00'0 0.0
2014-Aug-13 21:32N 38°52' W 077°00'0 0.0
2014-Aug-13 20:33N 38°52' W 077°00'0 0.0
2014-Aug-13 19:30N 38°52' W 077°00'0 0.0
2014-Aug-13 18:25N 38°52' W 077°00'0 0.0
2014-Aug-13 17:32N 38°52' W 077°00'0 0.0
2014-Aug-13 16:32N 38°52' W 077°00'0 0.0
2014-Aug-13 15:33N 38°52' W 077°00'1 0.8
2014-Aug-13 14:33N 38°51' W 077°01'7 6.7
2014-Aug-13 13:33N 38°45' W 077°02'4 3.7
2014-Aug-13 12:33N 38°42' W 077°05'0 0.0
2014-Aug-13 11:31N 38°42' W 077°05'0 0.0
2014-Aug-13 10:31N 38°42' W 077°05'0 0.1
2014-Aug-13 09:32N 38°42' W 077°05'0 0.1
2014-Aug-13 08:33N 38°42' W 077°05'0 0.0
2014-Aug-13 07:30N 38°42' W 077°05'2 1.0
2014-Aug-13 05:23N 38°41' W 077°07'38 2.0
2014-Aug-12 10:31N 38°57' W 076°24'6 6.2
2014-Aug-12 09:33N 39°03' W 076°23'  
Track history (hours):
 
Tides and Currents Weather Stations Pressure Air Temp Water Temp Dewpoint Dewpoint Depression Visibility Wind Speed Wind Dir Waves Ship Positions

Roanoke

More information available from US FCC via Universal Licensing System and Coast Guard Vessel Documentation Center.

Last reported at 2014-Aug-22 09:04 UTC. Time now 2014-Aug-22 09:56 UTC.
Position N 39°14' W 076°21'.

Length 32 m; draft 13 m.

Type: Towing. MMSI: 367314510.

Date/timePositionNaut miles runAvg speedWind from/ knotsBaromVisibWave heightAir tempDewpointWater temp
2014-Aug-22 09:04N 39°14' W 076°21'4 8.4
2014-Aug-22 08:33N 39°11' W 076°25'7 7.4
2014-Aug-22 07:33N 39°15' W 076°33'1 0.6
2014-Aug-22 06:05N 39°15' W 076°34'0 0.0
2014-Aug-22 05:32N 39°15' W 076°34'0 0.0
2014-Aug-22 04:21N 39°15' W 076°34'0 0.0
2014-Aug-22 03:31N 39°15' W 076°34'0 0.0
2014-Aug-22 02:29N 39°15' W 076°34'0 0.0
2014-Aug-22 01:32N 39°15' W 076°34'0 0.0
2014-Aug-22 00:33N 39°15' W 076°34'0 0.0
2014-Aug-21 23:33N 39°15' W 076°34'0 0.0
2014-Aug-21 22:31N 39°15' W 076°34'0 0.0
2014-Aug-21 21:32N 39°15' W 076°34'0 0.4
2014-Aug-21 20:29N 39°15' W 076°34'2 2.3
2014-Aug-21 19:33N 39°13' W 076°32'7 7.1
2014-Aug-21 18:33N 39°12' W 076°23'44 8.8
2014-Aug-21 13:33N 39°33' W 075°33'10 9.3
2014-Aug-21 12:30N 39°24' W 075°29'1010.3
2014-Aug-21 11:33N 39°16' W 075°21'6 2.9
2014-Aug-21 09:31N 39°11' W 075°24'0 0.0
2014-Aug-21 07:21N 39°11' W 075°24'0 0.0
2014-Aug-21 06:30N 39°11' W 075°24'0 0.0
2014-Aug-21 05:31N 39°11' W 075°24'0 0.0
2014-Aug-21 03:32N 39°11' W 075°24'0 0.0
2014-Aug-21 02:30N 39°11' W 075°24'0 0.0
2014-Aug-21 01:25N 39°11' W 075°24'38 3.1
2014-Aug-20 13:17N 39°19' W 076°12'6 6.5
2014-Aug-20 12:21N 39°15' W 076°17'5 6.6
2014-Aug-20 11:33N 39°12' W 076°23'6 6.2
2014-Aug-20 10:33N 39°12' W 076°31'3 1.0
2014-Aug-20 07:06N 39°15' W 076°34'0 0.4
2014-Aug-20 06:31N 39°15' W 076°34'0 0.4
2014-Aug-20 05:32N 39°15' W 076°34'0 0.0
2014-Aug-20 04:32N 39°15' W 076°34'0 0.0
2014-Aug-20 03:24N 39°15' W 076°34'0 0.0
2014-Aug-20 02:30N 39°15' W 076°34'0 0.0
2014-Aug-20 01:31N 39°15' W 076°34'0 0.0
2014-Aug-20 00:32N 39°15' W 076°34'0 0.3
2014-Aug-19 23:33N 39°15' W 076°34'0 0.2
2014-Aug-19 22:29N 39°15' W 076°34'0 0.3
2014-Aug-19 21:31N 39°15' W 076°34'1 1.0
2014-Aug-19 20:31N 39°15' W 076°33'0 0.0
2014-Aug-19 19:32N 39°15' W 076°33'2 2.1
2014-Aug-19 18:33N 39°14' W 076°32'7 7.3
2014-Aug-19 17:33N 39°12' W 076°23'42 6.9
2014-Aug-19 11:22N 39°24' W 075°30'40 1.4
2014-Aug-18 06:17N 39°14' W 076°20'5 7.5
2014-Aug-18 05:33N 39°11' W 076°26'7 6.7
2014-Aug-18 04:33N 39°14' W 076°33'1 0.9
2014-Aug-18 03:32N 39°15' W 076°34'0 0.0
2014-Aug-18 02:32N 39°15' W 076°34'0 0.0
2014-Aug-18 01:27N 39°15' W 076°34'0 0.0
2014-Aug-18 00:30N 39°15' W 076°34'1 0.2
2014-Aug-17 18:32N 39°15' W 076°33'0 0.0
2014-Aug-17 17:33N 39°15' W 076°33'0 0.0
2014-Aug-17 16:33N 39°15' W 076°33'5 4.3
2014-Aug-17 15:30N 39°12' W 076°30'45 8.8
2014-Aug-17 10:23N 39°33' W 075°39'6 6.3
2014-Aug-17 09:21N 39°28' W 075°34'810.0
2014-Aug-17 08:33N 39°22' W 075°27'34 1.1
2014-Aug-16 02:04N 39°20' W 076°11'10 6.8
2014-Aug-16 00:33N 39°13' W 076°21'6 5.8
2014-Aug-15 23:34N 39°11' W 076°28'6 6.1
2014-Aug-15 22:33N 39°15' W 076°34'0 0.2
2014-Aug-15 21:34N 39°15' W 076°34'0 0.0
2014-Aug-15 20:31N 39°15' W 076°34'0 0.0
2014-Aug-15 19:32N 39°15' W 076°34'0 0.3
2014-Aug-15 18:29N 39°15' W 076°34'0 0.0
2014-Aug-15 17:33N 39°15' W 076°34'0 0.1
2014-Aug-15 16:31N 39°15' W 076°34'0 0.0
2014-Aug-15 15:29N 39°15' W 076°34'0 0.3
2014-Aug-15 14:29N 39°15' W 076°34'0 0.0
2014-Aug-15 13:33N 39°15' W 076°34'0 0.0
2014-Aug-15 12:30N 39°15' W 076°34'1 0.9
2014-Aug-15 11:33N 39°15' W 076°33'6 6.3
2014-Aug-15 10:33N 39°11' W 076°27'14 6.8
2014-Aug-15 08:33N 38°57' W 076°24'39 2.4
2014-Aug-14 16:19N 38°39' W 077°08'7 7.6
2014-Aug-14 15:27N 38°44' W 077°02'7 7.6
2014-Aug-14 14:31N 38°51' W 077°01'1 1.2
2014-Aug-14 13:33N 38°52' W 077°00'0 0.0
2014-Aug-14 12:31N 38°52' W 077°00'0 0.0
2014-Aug-14 11:32N 38°52' W 077°00'0 0.0
2014-Aug-14 10:32N 38°52' W 077°00'0 0.0
2014-Aug-14 09:33N 38°52' W 077°00'0 0.0
2014-Aug-14 08:34N 38°52' W 077°00'0 0.0
2014-Aug-14 07:31N 38°52' W 077°00'0 0.0
2014-Aug-14 06:29N 38°52' W 077°00'0 0.0
2014-Aug-14 05:30N 38°52' W 077°00'0 0.0
2014-Aug-14 04:33N 38°52' W 077°00'0 0.0
2014-Aug-14 03:31N 38°52' W 077°00'0 0.0
2014-Aug-14 02:32N 38°52' W 077°00'0 0.0
2014-Aug-14 01:32N 38°52' W 077°00'0 0.0
2014-Aug-14 00:28N 38°52' W 077°00'0 0.0
2014-Aug-13 23:28N 38°52' W 077°00'0 0.0
2014-Aug-13 22:31N 38°52' W 077°00'0 0.0
2014-Aug-13 21:32N 38°52' W 077°00'0 0.0
2014-Aug-13 20:33N 38°52' W 077°00'0 0.0
2014-Aug-13 19:30N 38°52' W 077°00'0 0.0
2014-Aug-13 18:25N 38°52' W 077°00'0 0.0
2014-Aug-13 17:32N 38°52' W 077°00'0 0.0
2014-Aug-13 16:32N 38°52' W 077°00'0 0.0
2014-Aug-13 15:33N 38°52' W 077°00'1 0.8
2014-Aug-13 14:33N 38°51' W 077°01'7 6.7
2014-Aug-13 13:33N 38°45' W 077°02'4 3.7
2014-Aug-13 12:33N 38°42' W 077°05'0 0.0
2014-Aug-13 11:31N 38°42' W 077°05'0 0.0
2014-Aug-13 10:31N 38°42' W 077°05'0 0.1
2014-Aug-13 09:32N 38°42' W 077°05'0 0.1
2014-Aug-13 08:33N 38°42' W 077°05'0 0.0
2014-Aug-13 07:30N 38°42' W 077°05'2 1.0
2014-Aug-13 05:23N 38°41' W 077°07'38 2.0
2014-Aug-12 10:31N 38°57' W 076°24'6 6.2
2014-Aug-12 09:33N 39°03' W 076°23'  

Dump ship's entire track history